Time;durP1;ratioP1;P1;durP2;ratioP2;P2;SDS_P1;SDS_P2;PMS_P1;PMS_P2;Temp;Humidity;BMP_temperature;BMP_pressure;BME280_temperature;BME280_humidity;BME280_pressure;Samples;Min_cycle;Max_cycle;Signal;HPM_P1;HPM_P2
2024/02/11 00:01:33;;;;;;;5.25;1.73;;;22.90;40.00;;;;;;5092720;28;20224;-58
2024/02/11 00:04:02;;;;;;;5.32;1.80;;;22.90;39.20;;;;;;5092160;28;20547;-58
2024/02/11 00:06:29;;;;;;;4.82;1.38;;;23.00;39.10;;;;;;5092630;28;20321;-58
2024/02/11 00:08:56;;;;;;;4.20;1.73;;;23.00;39.00;;;;;;5092393;28;20281;-58
2024/02/11 00:11:24;;;;;;;3.70;1.50;;;23.00;39.00;;;;;;5092404;28;20269;-59
2024/02/11 00:13:51;;;;;;;4.25;1.48;;;23.00;38.90;;;;;;5092017;28;20792;-58
2024/02/11 00:16:18;;;;;;;6.53;1.80;;;22.90;38.90;;;;;;5092131;28;20273;-59
2024/02/11 00:18:45;;;;;;;3.88;1.67;;;23.00;39.00;;;;;;5092331;28;20189;-59
2024/02/11 00:21:13;;;;;;;4.10;1.48;;;22.90;39.00;;;;;;5092263;28;20281;-59
2024/02/11 00:23:42;;;;;;;3.67;1.40;;;22.90;39.20;;;;;;5092002;28;20232;-58
2024/02/11 00:26:08;;;;;;;5.72;1.77;;;22.90;40.00;;;;;;5092331;28;20213;-59
2024/02/11 00:28:37;;;;;;;4.90;1.67;;;22.80;39.30;;;;;;5092051;28;20240;-59
2024/02/11 00:31:05;;;;;;;6.70;1.80;;;22.80;40.00;;;;;;5092557;28;20229;-59
2024/02/11 00:33:32;;;;;;;3.60;1.58;;;22.80;39.30;;;;;;5091930;28;20192;-58
2024/02/11 00:35:59;;;;;;;6.10;1.48;;;22.80;39.40;;;;;;5092166;28;20189;-58
2024/02/11 00:38:26;;;;;;;3.60;1.27;;;22.80;39.40;;;;;;5092100;28;20795;-59
2024/02/11 00:40:53;;;;;;;4.72;1.52;;;22.80;39.40;;;;;;5092115;28;20281;-57
2024/02/11 00:43:20;;;;;;;5.47;1.45;;;22.70;39.40;;;;;;5092424;28;20218;-58
2024/02/11 00:45:48;;;;;;;5.22;1.70;;;22.70;39.40;;;;;;5095798;28;20847;-59
2024/02/11 00:48:15;;;;;;;5.75;1.52;;;22.70;39.50;;;;;;5095914;28;20774;-56
2024/02/11 00:50:43;;;;;;;4.50;1.83;;;22.70;39.50;;;;;;5095840;28;20263;-59
2024/02/11 00:53:10;;;;;;;2.15;1.10;;;22.70;39.60;;;;;;5095956;28;20222;-56
2024/02/11 00:55:37;;;;;;;4.45;1.60;;;22.70;39.60;;;;;;5095700;28;20273;-59
2024/02/11 00:58:05;;;;;;;4.90;1.80;;;22.70;39.60;;;;;;5095535;28;20648;-56
2024/02/11 01:00:33;;;;;;;4.63;1.45;;;22.70;39.70;;;;;;5095605;28;20289;-57
2024/02/11 01:03:04;;;;;;;3.38;1.27;;;22.70;39.60;;;;;;5095876;28;20218;-54
2024/02/11 01:05:31;;;;;;;4.85;1.30;;;22.70;39.60;;;;;;5095316;28;20586;-57
2024/02/11 01:08:01;;;;;;;5.95;1.52;;;22.70;39.60;;;;;;5095647;28;20305;-58
2024/02/11 01:10:31;;;;;;;2.97;1.45;;;22.80;39.60;;;;;;5095721;28;20194;-58
2024/02/11 01:12:58;;;;;;;5.05;1.50;;;22.80;39.60;;;;;;5093536;28;20214;-56
2024/02/11 01:15:26;;;;;;;5.25;1.42;;;22.90;39.60;;;;;;5079330;28;20194;-58
2024/02/11 01:17:53;;;;;;;3.70;1.42;;;22.90;39.50;;;;;;5074858;28;20696;-56
2024/02/11 01:20:22;;;;;;;3.50;1.52;;;22.90;39.40;;;;;;5075051;28;20215;-57
2024/02/11 01:22:49;;;;;;;4.57;1.50;;;22.90;39.40;;;;;;5074798;28;20743;-59
2024/02/11 01:25:19;;;;;;;6.47;1.80;;;23.00;39.40;;;;;;5074668;28;20648;-57
2024/02/11 01:27:46;;;;;;;5.25;1.42;;;23.00;39.40;;;;;;5075037;28;20230;-58
2024/02/11 01:30:14;;;;;;;3.33;1.20;;;23.00;39.30;;;;;;5075061;28;20234;-58
2024/02/11 01:32:41;;;;;;;3.25;1.17;;;23.00;39.30;;;;;;5074689;28;20219;-58
2024/02/11 01:35:12;;;;;;;4.95;1.60;;;23.00;39.40;;;;;;5074671;28;20190;-57
2024/02/11 01:37:41;;;;;;;4.72;1.60;;;22.90;39.40;;;;;;5074557;28;20219;-59
2024/02/11 01:40:13;;;;;;;4.28;1.50;;;22.90;39.40;;;;;;5074600;28;20191;-59
2024/02/11 01:42:40;;;;;;;6.70;1.63;;;22.90;39.50;;;;;;5074806;28;20255;-58
2024/02/11 01:45:08;;;;;;;5.47;1.55;;;22.80;39.50;;;;;;5074166;28;20866;-59
2024/02/11 01:47:36;;;;;;;5.22;1.40;;;22.80;39.50;;;;;;5074626;28;20254;-58
2024/02/11 01:50:08;;;;;;;5.40;1.50;;;22.80;39.60;;;;;;5074204;28;20648;-57
2024/02/11 01:52:37;;;;;;;5.07;1.95;;;22.80;39.70;;;;;;5074486;28;20231;-58
2024/02/11 01:55:07;;;;;;;4.53;1.65;;;22.80;39.70;;;;;;5073900;28;20252;-58
2024/02/11 01:57:34;;;;;;;5.72;1.65;;;22.80;39.70;;;;;;5073883;28;20313;-58
2024/02/11 02:00:03;;;;;;;5.90;1.83;;;22.80;39.70;;;;;;5074272;28;20305;-58
2024/02/11 02:02:31;;;;;;;5.88;1.63;;;22.70;39.70;;;;;;5074184;28;20226;-58
2024/02/11 02:05:00;;;;;;;7.00;1.80;;;22.80;39.70;;;;;;5073995;28;20191;-58
2024/02/11 02:07:26;;;;;;;3.95;1.67;;;22.70;39.70;;;;;;5074069;28;20317;-58
2024/02/11 02:09:54;;;;;;;4.32;1.50;;;22.70;39.70;;;;;;5073940;28;20274;-58
2024/02/11 02:12:22;;;;;;;4.30;1.60;;;22.70;39.70;;;;;;5073749;28;20219;-59
2024/02/11 02:14:50;;;;;;;6.25;1.55;;;22.70;39.70;;;;;;5073549;28;20183;-58
2024/02/11 02:17:17;;;;;;;4.50;1.30;;;22.70;39.80;;;;;;5073977;28;20325;-58
2024/02/11 02:19:44;;;;;;;6.63;1.50;;;22.70;39.80;;;;;;5073970;28;20274;-57
2024/02/11 02:22:13;;;;;;;4.28;1.45;;;22.70;39.70;;;;;;5073575;28;20225;-56
2024/02/11 02:24:40;;;;;;;5.28;1.40;;;22.70;40.50;;;;;;5073744;28;20559;-57
2024/02/11 02:27:07;;;;;;;5.50;1.77;;;22.80;39.80;;;;;;5073592;28;20241;-59
2024/02/11 02:29:34;;;;;;;6.05;1.55;;;22.80;39.80;;;;;;5073275;28;20448;-59
2024/02/11 02:32:01;;;;;;;5.82;1.80;;;22.90;39.70;;;;;;5073474;28;20826;-57
2024/02/11 02:34:28;;;;;;;7.30;1.73;;;22.90;39.70;;;;;;5073638;28;20616;-59
2024/02/11 02:36:55;;;;;;;3.70;1.33;;;22.90;39.60;;;;;;5073470;28;20214;-58
2024/02/11 02:39:25;;;;;;;5.20;2.00;;;22.90;39.60;;;;;;5073682;28;20281;-57
2024/02/11 02:41:52;;;;;;;6.43;1.60;;;22.90;39.50;;;;;;5073120;28;20231;-58
2024/02/11 02:44:19;;;;;;;7.07;1.70;;;23.00;39.50;;;;;;5073038;28;20186;-59
2024/02/11 02:46:46;;;;;;;5.32;1.42;;;23.00;39.40;;;;;;5073477;28;20666;-58
2024/02/11 02:49:13;;;;;;;5.65;1.77;;;23.00;39.40;;;;;;5073548;28;20298;-58
2024/02/11 02:51:40;;;;;;;6.75;1.73;;;22.90;39.40;;;;;;5073168;28;20237;-59
2024/02/11 02:54:07;;;;;;;6.75;1.92;;;22.90;39.50;;;;;;5072844;28;20187;-58
2024/02/11 02:56:36;;;;;;;6.05;1.80;;;22.80;39.40;;;;;;5073087;28;20282;-57
2024/02/11 02:59:05;;;;;;;7.50;1.75;;;22.80;39.50;;;;;;5072980;28;20668;-57
2024/02/11 03:01:33;;;;;;;5.22;1.30;;;22.80;39.70;;;;;;5072951;28;20190;-58
2024/02/11 03:04:01;;;;;;;5.20;1.33;;;22.80;39.70;;;;;;5072686;28;20190;-58
2024/02/11 03:06:29;;;;;;;8.52;1.83;;;22.80;39.70;;;;;;5072735;28;20211;-58
2024/02/11 03:08:56;;;;;;;5.90;1.73;;;22.80;39.70;;;;;;5072223;28;20187;-58
2024/02/11 03:11:22;;;;;;;3.42;1.25;;;22.80;39.70;;;;;;5072835;28;20269;-58
2024/02/11 03:13:51;;;;;;;4.43;1.73;;;22.80;39.70;;;;;;5072485;28;20226;-57
2024/02/11 03:16:18;;;;;;;6.22;1.80;;;22.80;39.70;;;;;;5073071;28;20225;-59
2024/02/11 03:18:45;;;;;;;7.13;1.52;;;22.70;39.60;;;;;;5072485;28;20725;-58
2024/02/11 03:21:14;;;;;;;5.75;1.50;;;22.70;39.70;;;;;;5073026;28;20189;-58
2024/02/11 03:23:41;;;;;;;7.30;1.75;;;22.70;39.70;;;;;;5072865;28;20309;-58
2024/02/11 03:26:10;;;;;;;5.15;1.50;;;22.70;39.70;;;;;;5072303;28;20272;-58
2024/02/11 03:28:37;;;;;;;5.85;1.33;;;22.70;39.70;;;;;;5072343;28;20773;-59
2024/02/11 03:31:07;;;;;;;5.90;1.52;;;22.70;39.80;;;;;;5072563;28;20292;-59
2024/02/11 03:33:34;;;;;;;5.47;1.77;;;22.60;39.70;;;;;;5072469;28;20775;-57
2024/02/11 03:36:02;;;;;;;5.03;1.35;;;22.70;40.50;;;;;;5072282;28;20195;-58
2024/02/11 03:38:29;;;;;;;6.43;1.60;;;22.70;39.90;;;;;;5072743;28;20580;-59
2024/02/11 03:40:56;;;;;;;3.97;1.60;;;22.70;39.90;;;;;;5072635;28;20563;-59
2024/02/11 03:43:23;;;;;;;4.22;1.42;;;22.70;39.90;;;;;;5072641;28;20301;-59
2024/02/11 03:45:51;;;;;;;4.45;1.27;;;22.70;39.80;;;;;;5072446;28;20187;-58
2024/02/11 03:48:20;;;;;;;5.70;1.75;;;22.80;39.80;;;;;;5072441;28;20296;-58
2024/02/11 03:50:47;;;;;;;7.45;1.95;;;22.80;40.40;;;;;;5072236;28;20283;-58
2024/02/11 03:53:21;;;;;;;5.88;1.77;;;22.90;39.70;;;;;;5072782;28;20222;-58
2024/02/11 03:55:48;;;;;;;5.65;1.70;;;22.90;39.70;;;;;;5072352;28;20194;-59
2024/02/11 03:58:15;;;;;;;6.80;1.88;;;22.90;39.60;;;;;;5072482;28;20301;-58
2024/02/11 04:00:44;;;;;;;5.30;1.60;;;22.90;39.50;;;;;;5072035;28;20687;-58
2024/02/11 04:03:12;;;;;;;6.38;1.65;;;22.90;39.40;;;;;;5072107;28;20219;-58
2024/02/11 04:05:43;;;;;;;6.95;2.08;;;23.00;39.50;;;;;;5072321;28;20611;-59
2024/02/11 04:08:11;;;;;;;6.57;2.08;;;22.90;39.40;;;;;;5072322;28;20230;-58
2024/02/11 04:10:39;;;;;;;4.47;1.33;;;22.90;39.40;;;;;;5072234;28;20187;-58
2024/02/11 04:13:09;;;;;;;4.90;1.48;;;22.90;39.50;;;;;;5072264;28;20227;-58
2024/02/11 04:15:37;;;;;;;3.88;1.60;;;22.90;39.60;;;;;;5072135;28;20191;-57
2024/02/11 04:18:10;;;;;;;4.55;1.50;;;22.80;39.50;;;;;;5072268;28;20227;-56
2024/02/11 04:20:37;;;;;;;7.18;1.70;;;22.80;39.60;;;;;;5075790;28;20290;-59
2024/02/11 04:23:07;;;;;;;5.50;1.70;;;22.80;39.60;;;;;;5076166;28;20214;-58
2024/02/11 04:25:36;;;;;;;5.68;1.35;;;22.80;39.70;;;;;;5076121;28;20606;-59
2024/02/11 04:28:07;;;;;;;4.47;1.17;;;22.80;39.70;;;;;;5075724;28;20230;-59
2024/02/11 04:30:37;;;;;;;4.07;1.30;;;22.80;39.70;;;;;;5075613;28;20290;-59
2024/02/11 04:33:04;;;;;;;5.93;1.27;;;22.70;39.70;;;;;;5075925;28;20225;-58
2024/02/11 04:35:33;;;;;;;5.78;1.55;;;22.80;39.70;;;;;;5075813;28;20187;-58
2024/02/11 04:38:00;;;;;;;4.60;1.45;;;22.70;39.70;;;;;;5075594;28;20659;-58
2024/02/11 04:40:28;;;;;;;4.68;1.50;;;22.70;39.70;;;;;;5075481;28;20647;-57
2024/02/11 04:42:56;;;;;;;6.20;1.60;;;22.70;40.40;;;;;;5075779;28;20305;-58
2024/02/11 04:45:24;;;;;;;5.13;1.10;;;22.70;39.70;;;;;;5075280;28;20188;-58
2024/02/11 04:47:54;;;;;;;6.55;1.30;;;22.60;39.70;;;;;;5075718;28;20230;-58
2024/02/11 04:50:22;;;;;;;3.88;1.33;;;22.60;39.80;;;;;;5075578;28;20187;-58
2024/02/11 04:52:55;;;;;;;4.88;1.63;;;22.60;39.80;;;;;;5075498;28;20221;-59
2024/02/11 04:55:22;;;;;;;4.43;1.70;;;22.60;39.80;;;;;;5075414;28;20194;-58
2024/02/11 04:57:51;;;;;;;3.55;0.95;;;22.60;39.80;;;;;;5075415;28;20253;-58
2024/02/11 05:00:27;;;;;;;3.70;1.35;;;22.70;39.90;;;;;;5075372;28;20187;-59
2024/02/11 05:02:55;;;;;;;6.10;1.60;;;22.80;39.80;;;;;;5075381;28;20310;-57
2024/02/11 05:05:25;;;;;;;4.63;1.75;;;22.80;39.70;;;;;;5075378;28;20270;-59
2024/02/11 05:07:53;;;;;;;6.72;1.63;;;22.80;39.70;;;;;;5075237;28;20231;-59
2024/02/11 05:10:21;;;;;;;5.75;1.40;;;22.80;39.60;;;;;;5075014;28;20194;-58
2024/02/11 05:12:50;;;;;;;5.05;1.60;;;22.90;39.60;;;;;;5075249;28;20221;-58
2024/02/11 05:15:20;;;;;;;4.80;1.50;;;22.90;39.60;;;;;;5075357;28;20194;-56
2024/02/11 05:17:48;;;;;;;4.10;1.38;;;22.90;39.50;;;;;;5075140;28;20210;-59
2024/02/11 05:20:21;;;;;;;5.82;1.52;;;22.90;39.40;;;;;;5074985;28;20603;-59
2024/02/11 05:22:48;;;;;;;7.25;1.67;;;22.90;39.40;;;;;;5075006;28;20280;-59
2024/02/11 05:25:19;;;;;;;4.38;1.60;;;22.90;39.40;;;;;;5075095;28;20197;-58
2024/02/11 05:27:53;;;;;;;7.63;1.40;;;22.90;39.40;;;;;;5074620;28;20239;-58
2024/02/11 05:30:20;;;;;;;7.38;1.70;;;22.90;39.40;;;;;;5073658;28;20201;-57
2024/02/11 05:32:47;;;;;;;4.05;1.33;;;22.80;39.40;;;;;;5074951;28;20327;-59
2024/02/11 05:35:17;;;;;;;5.00;1.60;;;22.80;39.50;;;;;;5074743;28;20217;-59
2024/02/11 05:37:44;;;;;;;4.40;1.67;;;22.80;39.50;;;;;;5074805;28;20246;-57
2024/02/11 05:40:12;;;;;;;3.60;1.40;;;22.80;39.50;;;;;;5074687;28;20271;-58
2024/02/11 05:42:40;;;;;;;5.03;1.83;;;22.80;39.60;;;;;;5074679;28;20301;-59
2024/02/11 05:45:09;;;;;;;4.68;1.85;;;22.80;39.60;;;;;;5074535;28;20191;-59
2024/02/11 05:47:37;;;;;;;5.63;1.80;;;22.70;39.50;;;;;;5074497;28;20244;-59
2024/02/11 05:50:06;;;;;;;4.93;1.67;;;22.70;39.50;;;;;;5074236;28;20228;-59
2024/02/11 05:52:33;;;;;;;5.57;1.90;;;22.70;39.60;;;;;;5074475;28;20215;-57
2024/02/11 05:55:00;;;;;;;5.40;1.50;;;22.70;39.60;;;;;;5074371;28;20567;-59
2024/02/11 05:57:28;;;;;;;6.07;1.50;;;22.70;39.60;;;;;;5074123;28;20222;-58
2024/02/11 05:59:56;;;;;;;3.97;1.55;;;22.70;39.50;;;;;;5074321;28;20190;-57
2024/02/11 06:02:26;;;;;;;6.10;1.58;;;22.70;39.60;;;;;;5074296;28;20222;-57
2024/02/11 06:04:53;;;;;;;7.60;2.00;;;22.60;39.60;;;;;;5074140;28;20194;-59
2024/02/11 06:07:20;;;;;;;5.10;1.45;;;22.70;39.70;;;;;;5074125;28;20329;-57
2024/02/11 06:09:48;;;;;;;4.47;1.20;;;22.60;39.50;;;;;;5074298;28;20274;-58
2024/02/11 06:12:15;;;;;;;5.93;1.27;;;22.70;39.60;;;;;;5073728;28;20589;-59
2024/02/11 06:14:43;;;;;;;8.00;1.63;;;22.70;39.60;;;;;;5073920;28;20286;-59
2024/02/11 06:17:10;;;;;;;2.88;1.10;;;22.80;39.60;;;;;;5074101;28;20225;-56
2024/02/11 06:19:41;;;;;;;5.55;1.55;;;22.80;39.50;;;;;;5073889;28;20205;-58
2024/02/11 06:22:08;;;;;;;5.50;1.35;;;22.80;39.40;;;;;;5073710;28;20214;-59
2024/02/11 06:24:35;;;;;;;5.60;1.50;;;22.80;39.30;;;;;;5073476;28;20195;-58
2024/02/11 06:27:02;;;;;;;5.00;1.58;;;22.90;39.40;;;;;;5073735;28;20315;-59
2024/02/11 06:29:29;;;;;;;3.58;1.30;;;22.90;39.30;;;;;;5073370;28;20230;-58
2024/02/11 06:31:58;;;;;;;5.57;1.35;;;22.90;39.20;;;;;;5073788;28;20195;-57
2024/02/11 06:34:26;;;;;;;4.97;1.23;;;23.00;39.10;;;;;;5073479;28;20186;-57
2024/02/11 06:36:54;;;;;;;4.57;1.40;;;23.00;39.00;;;;;;5073440;28;20194;-58
2024/02/11 06:39:24;;;;;;;4.47;1.52;;;23.00;38.90;;;;;;5073453;28;20191;-58
2024/02/11 06:41:51;;;;;;;3.38;1.05;;;22.90;38.90;;;;;;5073239;28;20209;-57
2024/02/11 06:44:22;;;;;;;3.85;1.10;;;22.90;39.70;;;;;;5073300;28;20191;-55
2024/02/11 06:46:49;;;;;;;5.13;1.50;;;22.90;39.20;;;;;;5073334;28;20274;-58
2024/02/11 06:49:16;;;;;;;4.63;1.40;;;22.80;39.20;;;;;;5073293;28;20198;-58
2024/02/11 06:51:43;;;;;;;3.22;1.27;;;22.80;39.20;;;;;;5072855;28;20649;-58
2024/02/11 06:54:11;;;;;;;2.83;1.00;;;22.80;39.20;;;;;;5073169;28;20187;-58
2024/02/11 06:56:39;;;;;;;4.38;1.30;;;22.80;39.30;;;;;;5072879;28;20191;-58
2024/02/11 06:59:05;;;;;;;2.67;1.20;;;22.80;39.30;;;;;;5073110;28;20222;-59
2024/02/11 07:01:33;;;;;;;5.22;1.13;;;22.70;39.30;;;;;;5073105;28;20221;-58
2024/02/11 07:04:02;;;;;;;4.35;1.13;;;22.70;39.40;;;;;;5072958;28;20704;-58
2024/02/11 07:06:30;;;;;;;3.65;1.17;;;22.70;39.40;;;;;;5073008;28;20197;-59
2024/02/11 07:08:57;;;;;;;3.10;1.30;;;22.70;39.50;;;;;;5072767;28;20266;-58
2024/02/11 07:11:25;;;;;;;5.03;1.20;;;22.60;39.40;;;;;;5072614;28;20645;-58
2024/02/11 07:13:52;;;;;;;4.00;1.10;;;22.60;39.40;;;;;;5073009;28;20215;-58
2024/02/11 07:16:27;;;;;;;3.22;1.17;;;22.60;39.40;;;;;;5072748;28;20214;-56
2024/02/11 07:18:54;;;;;;;4.30;1.25;;;22.60;39.40;;;;;;5072981;28;20268;-57
2024/02/11 07:21:22;;;;;;;4.38;0.95;;;22.60;39.50;;;;;;5072750;28;20631;-57
2024/02/11 07:23:49;;;;;;;3.63;1.30;;;22.60;39.50;;;;;;5072980;28;20222;-57
2024/02/11 07:26:16;;;;;;;4.45;1.35;;;22.60;39.50;;;;;;5072696;28;20195;-56
2024/02/11 07:28:46;;;;;;;3.20;1.10;;;22.70;39.60;;;;;;5072198;28;20234;-57
2024/02/11 07:31:12;;;;;;;4.05;1.55;;;22.80;39.60;;;;;;5072880;28;20195;-58
2024/02/11 07:33:39;;;;;;;4.75;1.33;;;22.80;39.50;;;;;;5072727;28;20210;-58
2024/02/11 07:36:07;;;;;;;3.50;1.48;;;22.80;39.40;;;;;;5072591;28;20357;-58
2024/02/11 07:38:34;;;;;;;4.25;1.40;;;22.80;39.40;;;;;;5072682;28;20219;-55
2024/02/11 07:41:01;;;;;;;5.53;1.35;;;22.90;39.40;;;;;;5072555;28;20187;-57
2024/02/11 07:43:28;;;;;;;4.18;1.30;;;22.90;39.40;;;;;;5072587;28;20653;-58
2024/02/11 07:45:57;;;;;;;4.75;1.27;;;22.90;39.40;;;;;;5072462;28;20218;-58
2024/02/11 07:48:25;;;;;;;5.50;1.50;;;22.90;39.40;;;;;;5072554;28;20234;-59
2024/02/11 07:50:52;;;;;;;4.05;1.30;;;22.90;39.20;;;;;;5072411;28;20244;-59
2024/02/11 07:53:19;;;;;;;4.82;1.58;;;22.90;39.20;;;;;;5071934;28;20301;-58
2024/02/11 07:55:46;;;;;;;7.25;1.70;;;22.90;39.30;;;;;;5072430;28;20187;-58
2024/02/11 07:58:13;;;;;;;5.63;1.45;;;22.90;39.40;;;;;;5072512;28;20306;-58
2024/02/11 08:00:40;;;;;;;6.78;1.48;;;22.90;40.00;;;;;;5072330;28;20191;-58
2024/02/11 08:03:09;;;;;;;5.05;1.65;;;22.80;39.30;;;;;;5072058;28;20215;-56
2024/02/11 08:05:36;;;;;;;5.97;1.25;;;22.80;39.40;;;;;;5072016;28;20687;-56
2024/02/11 08:08:03;;;;;;;5.70;1.77;;;22.80;39.40;;;;;;5072261;28;20359;-56
2024/02/11 08:10:30;;;;;;;4.32;1.48;;;22.80;40.20;;;;;;5072207;28;20725;-58
2024/02/11 08:12:57;;;;;;;5.32;1.33;;;22.80;39.50;;;;;;5072251;28;20224;-56
2024/02/11 08:15:24;;;;;;;8.00;2.17;;;22.80;39.60;;;;;;5071931;28;20183;-58
2024/02/11 08:17:51;;;;;;;4.78;1.40;;;22.70;39.60;;;;;;5072248;28;20237;-59
2024/02/11 08:20:19;;;;;;;5.50;1.50;;;22.70;39.60;;;;;;5072138;28;20187;-58
2024/02/11 08:22:47;;;;;;;5.78;1.50;;;22.70;39.70;;;;;;5071864;28;20218;-56
2024/02/11 08:25:14;;;;;;;5.75;1.58;;;22.70;40.40;;;;;;5072459;28;20195;-59
2024/02/11 08:27:41;;;;;;;4.78;1.60;;;22.70;39.80;;;;;;5071554;28;20711;-58
2024/02/11 08:30:10;;;;;;;4.47;1.63;;;22.60;39.70;;;;;;5071751;28;20278;-58
2024/02/11 08:32:38;;;;;;;7.22;2.00;;;22.60;39.70;;;;;;5072099;28;20223;-56
2024/02/11 08:35:05;;;;;;;7.32;2.22;;;22.60;39.70;;;;;;5072032;28;20237;-56
2024/02/11 08:37:33;;;;;;;5.72;1.90;;;22.60;39.80;;;;;;5072159;28;20223;-58
2024/02/11 08:40:00;;;;;;;7.65;1.55;;;22.70;39.90;;;;;;5072037;28;20377;-56
2024/02/11 08:42:27;;;;;;;5.57;1.80;;;22.70;40.50;;;;;;5071865;28;20219;-58
2024/02/11 08:44:55;;;;;;;4.22;1.55;;;22.70;39.80;;;;;;5071823;28;20194;-58
2024/02/11 08:47:24;;;;;;;6.22;2.00;;;22.80;39.80;;;;;;5071869;28;20218;-58
2024/02/11 08:49:51;;;;;;;6.57;1.80;;;22.80;39.80;;;;;;5071817;28;20195;-57
2024/02/11 08:52:18;;;;;;;7.68;1.77;;;22.80;39.80;;;;;;5071813;28;20215;-57
2024/02/11 08:54:47;;;;;;;7.15;2.42;;;22.80;40.40;;;;;;5071543;28;20645;-56
2024/02/11 08:57:15;;;;;;;7.45;2.20;;;22.80;39.70;;;;;;5071820;28;20210;-57
2024/02/11 08:59:42;;;;;;;8.45;2.20;;;22.80;39.70;;;;;;5071706;28;20200;-59
2024/02/11 09:02:10;;;;;;;4.53;1.60;;;22.80;39.70;;;;;;5071384;28;20263;-58
2024/02/11 09:04:37;;;;;;;5.45;1.90;;;22.80;39.60;;;;;;5071680;28;20195;-59
2024/02/11 09:07:10;;;;;;;5.82;1.92;;;22.80;39.60;;;;;;5074406;28;20198;-58
2024/02/11 09:09:37;;;;;;;4.57;1.83;;;22.90;39.70;;;;;;5074863;28;20601;-56
2024/02/11 09:12:07;;;;;;;5.20;2.00;;;22.80;39.60;;;;;;5075255;28;20261;-58
2024/02/11 09:14:37;;;;;;;4.32;1.73;;;22.80;39.60;;;;;;5075116;28;20278;-56
2024/02/11 09:17:05;;;;;;;5.50;1.83;;;22.80;39.60;;;;;;5075168;28;20245;-59
2024/02/11 09:19:32;;;;;;;4.88;1.80;;;22.80;39.70;;;;;;5075063;28;20191;-57
2024/02/11 09:21:59;;;;;;;4.30;1.80;;;22.80;39.70;;;;;;5074687;28;20191;-57
2024/02/11 09:24:26;;;;;;;6.78;2.25;;;22.70;39.70;;;;;;5074945;28;20211;-59
2024/02/11 09:26:53;;;;;;;5.43;2.10;;;22.70;39.70;;;;;;5074745;28;20193;-59
2024/02/11 09:29:21;;;;;;;2.70;1.52;;;22.70;39.80;;;;;;5074738;28;20249;-56
2024/02/11 09:31:49;;;;;;;5.55;1.90;;;22.70;39.80;;;;;;5075087;28;20587;-58
2024/02/11 09:34:16;;;;;;;6.03;2.30;;;22.70;39.80;;;;;;5074655;28;20249;-58
2024/02/11 09:36:44;;;;;;;4.15;1.70;;;22.70;39.90;;;;;;5074816;28;20209;-58
2024/02/11 09:39:11;;;;;;;5.53;2.08;;;22.60;39.80;;;;;;5074933;28;20219;-58
2024/02/11 09:41:38;;;;;;;5.30;1.80;;;22.60;39.80;;;;;;5074919;28;20194;-59
2024/02/11 09:44:07;;;;;;;5.05;2.13;;;22.60;39.90;;;;;;5074824;28;20222;-56
2024/02/11 09:46:36;;;;;;;6.25;1.85;;;22.60;39.90;;;;;;5074463;28;20274;-59
2024/02/11 09:49:08;;;;;;;5.45;1.70;;;22.60;39.90;;;;;;5074694;28;20231;-59
2024/02/11 09:51:36;;;;;;;5.97;2.20;;;22.60;40.00;;;;;;5074509;28;20248;-59
2024/02/11 09:54:04;;;;;;;4.53;2.03;;;22.60;40.00;;;;;;5074247;28;20720;-58
2024/02/11 09:56:31;;;;;;;6.10;1.92;;;22.60;40.00;;;;;;5074377;28;20222;-59
2024/02/11 09:58:58;;;;;;;6.00;1.90;;;22.60;39.90;;;;;;5074527;28;20301;-56
2024/02/11 10:01:27;;;;;;;3.85;1.90;;;22.70;39.90;;;;;;5074290;28;20191;-58
2024/02/11 10:03:58;;;;;;;5.40;1.65;;;22.70;39.80;;;;;;5074391;28;20246;-58
2024/02/11 10:06:32;;;;;;;4.75;1.70;;;22.70;39.80;;;;;;5073833;28;20205;-57
2024/02/11 10:08:59;;;;;;;3.13;1.55;;;22.80;39.90;;;;;;5074255;28;20237;-59
2024/02/11 10:11:27;;;;;;;3.72;1.45;;;22.80;39.80;;;;;;5074153;28;20191;-59
2024/02/11 10:13:59;;;;;;;4.38;1.60;;;22.80;39.70;;;;;;5073965;28;20307;-57
2024/02/11 10:16:27;;;;;;;3.55;1.70;;;22.80;39.70;;;;;;5073489;28;20270;-57
2024/02/11 10:18:58;;;;;;;5.82;1.60;;;22.80;39.60;;;;;;5073948;28;20225;-58
2024/02/11 10:21:25;;;;;;;3.70;1.85;;;22.90;39.60;;;;;;5073828;28;20190;-59
2024/02/11 10:23:54;;;;;;;4.55;1.90;;;22.90;39.60;;;;;;5073907;28;20253;-57
2024/02/11 10:26:21;;;;;;;4.93;1.90;;;22.80;39.50;;;;;;5073800;28;20198;-59
2024/02/11 10:28:48;;;;;;;4.97;1.95;;;22.80;39.50;;;;;;5073189;28;20840;-55
2024/02/11 10:31:15;;;;;;;5.30;1.98;;;22.80;39.60;;;;;;5073621;28;20195;-57
2024/02/11 10:33:43;;;;;;;4.00;1.80;;;22.70;39.60;;;;;;5073715;28;20218;-58
2024/02/11 10:36:12;;;;;;;6.10;1.80;;;22.70;39.70;;;;;;5073266;28;20671;-59
2024/02/11 10:38:39;;;;;;;5.22;2.40;;;22.70;39.70;;;;;;5073679;28;20219;-58
2024/02/11 10:41:07;;;;;;;5.20;2.20;;;22.70;39.70;;;;;;5073421;28;20667;-59
2024/02/11 10:43:34;;;;;;;3.55;1.52;;;22.70;39.80;;;;;;5073327;28;20272;-57
2024/02/11 10:46:02;;;;;;;5.07;2.10;;;22.60;39.70;;;;;;5073369;28;20278;-58
2024/02/11 10:48:29;;;;;;;6.38;2.30;;;22.60;39.70;;;;;;5073335;28;20233;-58
2024/02/11 10:51:08;;;;;;;4.55;2.00;;;22.70;39.80;;;;;;5073466;28;20187;-58
2024/02/11 10:53:38;;;;;;;3.42;1.92;;;22.70;39.80;;;;;;5073115;28;20214;-59
2024/02/11 10:56:06;;;;;;;4.70;2.17;;;22.70;39.80;;;;;;5073188;28;20191;-59
2024/02/11 10:58:42;;;;;;;6.38;2.15;;;22.70;39.80;;;;;;5073251;28;20303;-58
2024/02/11 11:01:09;;;;;;;5.68;2.42;;;22.60;40.40;;;;;;5073140;28;20592;-58
2024/02/11 11:03:39;;;;;;;4.45;2.35;;;22.60;39.70;;;;;;5072892;28;20298;-59
2024/02/11 11:06:08;;;;;;;6.18;2.28;;;22.60;39.70;;;;;;5072758;28;20186;-56
2024/02/11 11:08:41;;;;;;;6.10;2.42;;;22.60;39.70;;;;;;5072872;28;20807;-59
2024/02/11 11:11:08;;;;;;;4.60;2.30;;;22.70;39.70;;;;;;5072910;28;20278;-59
2024/02/11 11:13:35;;;;;;;5.28;2.40;;;22.70;39.70;;;;;;5073096;28;20222;-58
2024/02/11 11:16:03;;;;;;;5.10;2.28;;;22.70;39.60;;;;;;5072565;28;20652;-58
2024/02/11 11:18:35;;;;;;;6.57;2.55;;;22.80;39.60;;;;;;5072523;28;20602;-58
2024/02/11 11:21:04;;;;;;;3.45;2.05;;;22.80;39.60;;;;;;5072772;28;20212;-58
2024/02/11 11:23:31;;;;;;;4.60;2.30;;;22.80;40.20;;;;;;5072564;28;20305;-58
2024/02/11 11:26:00;;;;;;;4.80;2.30;;;22.80;39.50;;;;;;5072724;28;20195;-58
2024/02/11 11:28:31;;;;;;;8.23;2.75;;;22.80;39.50;;;;;;5071685;28;20234;-58
2024/02/11 11:30:58;;;;;;;6.50;2.28;;;22.80;39.40;;;;;;5072627;28;20653;-59
2024/02/11 11:33:27;;;;;;;3.95;2.35;;;22.80;39.30;;;;;;5072681;28;20219;-59
2024/02/11 11:35:58;;;;;;;4.97;2.50;;;22.90;39.40;;;;;;5072298;28;20190;-58
2024/02/11 11:38:27;;;;;;;7.95;2.60;;;22.80;39.30;;;;;;5072682;28;20214;-57
2024/02/11 11:40:55;;;;;;;5.30;2.35;;;22.90;39.40;;;;;;5072238;28;20187;-58
2024/02/11 11:43:24;;;;;;;4.05;2.13;;;22.80;39.30;;;;;;5072259;28;20214;-56
2024/02/11 11:45:56;;;;;;;5.30;2.42;;;22.80;39.30;;;;;;5072479;28;20193;-59
2024/02/11 11:48:24;;;;;;;5.32;2.10;;;22.80;39.30;;;;;;5072457;28;20219;-58
2024/02/11 11:50:58;;;;;;;6.78;2.50;;;22.80;39.40;;;;;;5072792;28;20273;-56
2024/02/11 11:53:25;;;;;;;8.00;2.33;;;22.80;39.40;;;;;;5072481;28;20250;-57
2024/02/11 11:55:53;;;;;;;6.18;2.08;;;22.70;39.40;;;;;;5072393;28;20237;-58
2024/02/11 11:58:23;;;;;;;5.78;2.20;;;22.70;39.40;;;;;;5072409;28;20221;-58
2024/02/11 12:01:00;;;;;;;7.15;2.45;;;22.70;39.40;;;;;;5072053;28;20706;-59
2024/02/11 12:03:27;;;;;;;6.88;2.75;;;22.70;39.40;;;;;;5072372;28;20214;-57
2024/02/11 12:05:55;;;;;;;5.72;2.22;;;22.70;39.40;;;;;;5072323;28;20265;-59
2024/02/11 12:08:22;;;;;;;5.40;2.40;;;22.60;39.40;;;;;;5072354;28;20215;-55
2024/02/11 12:11:01;;;;;;;5.95;2.55;;;22.60;39.40;;;;;;5071908;28;20308;-59
2024/02/11 12:13:32;;;;;;;7.00;2.42;;;22.60;39.40;;;;;;5072350;28;20250;-59
2024/02/11 12:16:01;;;;;;;5.40;2.20;;;22.60;39.40;;;;;;5072232;28;20205;-56
2024/02/11 12:18:28;;;;;;;6.28;2.40;;;22.60;39.40;;;;;;5072448;28;20222;-56
2024/02/11 12:20:56;;;;;;;6.75;2.72;;;22.60;39.40;;;;;;5072201;28;20191;-56
2024/02/11 12:23:23;;;;;;;5.57;2.53;;;22.60;39.40;;;;;;5072323;28;20275;-56
2024/02/11 12:25:54;;;;;;;4.85;2.08;;;22.70;39.40;;;;;;5071915;28;20199;-58
2024/02/11 12:28:25;;;;;;;4.70;2.67;;;22.70;39.30;;;;;;5071862;28;20226;-58
2024/02/11 12:31:06;;;;;;;6.80;2.47;;;22.70;39.30;;;;;;5072244;28;20230;-59
2024/02/11 12:33:37;;;;;;;7.22;2.22;;;22.70;39.20;;;;;;5072101;28;20222;-59
2024/02/11 12:36:07;;;;;;;5.95;2.10;;;22.80;39.30;;;;;;5071629;28;20549;-58
2024/02/11 12:38:36;;;;;;;7.10;2.70;;;22.80;39.10;;;;;;5071806;28;20718;-59
2024/02/11 12:41:03;;;;;;;3.83;2.05;;;22.80;39.10;;;;;;5074525;28;20637;-59
2024/02/11 12:43:32;;;;;;;4.28;2.22;;;22.80;38.90;;;;;;5075846;28;20348;-58
2024/02/11 12:46:01;;;;;;;6.38;2.22;;;22.90;38.90;;;;;;5075692;28;20221;-58
2024/02/11 12:48:29;;;;;;;5.10;2.35;;;22.90;38.80;;;;;;5056949;28;20318;-59
2024/02/11 12:50:56;;;;;;;6.90;2.13;;;22.90;38.80;;;;;;5075531;28;20221;-58
2024/02/11 12:53:23;;;;;;;4.65;2.20;;;22.80;39.40;;;;;;5075718;28;20233;-59